sensor_id;sensor_type;location;lat;lon;timestamp;P1;durP1;ratioP1;P2;durP2;ratioP2
55090;SDS011;40985;53.180;5.800;2022-12-29T00:01:12;5.53;;;4.90;;
55090;SDS011;40985;53.180;5.800;2022-12-29T00:03:38;6.40;;;5.45;;
55090;SDS011;40985;53.180;5.800;2022-12-29T00:06:04;5.13;;;4.80;;
55090;SDS011;40985;53.180;5.800;2022-12-29T00:08:29;5.63;;;5.25;;
55090;SDS011;40985;53.180;5.800;2022-12-29T00:11:26;5.10;;;4.80;;
55090;SDS011;40985;53.180;5.800;2022-12-29T00:13:52;5.57;;;5.10;;
55090;SDS011;40985;53.180;5.800;2022-12-29T00:16:37;4.22;;;4.03;;
55090;SDS011;40985;53.180;5.800;2022-12-29T00:19:05;5.28;;;4.45;;
55090;SDS011;40985;53.180;5.800;2022-12-29T00:21:31;5.05;;;4.65;;
55090;SDS011;40985;53.180;5.800;2022-12-29T00:24:16;5.25;;;4.75;;
55090;SDS011;40985;53.180;5.800;2022-12-29T00:27:07;4.60;;;4.30;;
55090;SDS011;40985;53.180;5.800;2022-12-29T00:29:54;4.43;;;4.03;;
55090;SDS011;40985;53.180;5.800;2022-12-29T00:32:39;4.82;;;4.43;;
55090;SDS011;40985;53.180;5.800;2022-12-29T00:35:28;4.55;;;4.15;;
55090;SDS011;40985;53.180;5.800;2022-12-29T00:38:01;5.68;;;3.78;;
55090;SDS011;40985;53.180;5.800;2022-12-29T00:40:48;4.22;;;3.83;;
55090;SDS011;40985;53.180;5.800;2022-12-29T00:43:33;4.80;;;4.40;;
55090;SDS011;40985;53.180;5.800;2022-12-29T00:46:17;5.38;;;4.65;;
55090;SDS011;40985;53.180;5.800;2022-12-29T00:48:43;4.53;;;4.25;;
55090;SDS011;40985;53.180;5.800;2022-12-29T00:51:28;4.45;;;4.07;;
55090;SDS011;40985;53.180;5.800;2022-12-29T00:53:54;4.78;;;4.35;;
55090;SDS011;40985;53.180;5.800;2022-12-29T00:56:19;4.93;;;4.55;;
55090;SDS011;40985;53.180;5.800;2022-12-29T00:58:45;4.88;;;4.47;;
55090;SDS011;40985;53.180;5.800;2022-12-29T01:01:11;5.00;;;4.50;;
55090;SDS011;40985;53.180;5.800;2022-12-29T01:03:37;4.65;;;4.25;;
55090;SDS011;40985;53.180;5.800;2022-12-29T01:06:04;5.10;;;4.80;;
55090;SDS011;40985;53.180;5.800;2022-12-29T01:08:31;4.75;;;4.30;;
55090;SDS011;40985;53.180;5.800;2022-12-29T01:11:01;3.70;;;3.38;;
55090;SDS011;40985;53.180;5.800;2022-12-29T01:13:29;4.55;;;4.25;;
55090;SDS011;40985;53.180;5.800;2022-12-29T01:15:54;4.30;;;3.90;;
55090;SDS011;40985;53.180;5.800;2022-12-29T01:18:21;4.60;;;4.10;;
55090;SDS011;40985;53.180;5.800;2022-12-29T01:20:47;5.53;;;3.88;;
55090;SDS011;40985;53.180;5.800;2022-12-29T01:23:13;4.15;;;3.80;;
55090;SDS011;40985;53.180;5.800;2022-12-29T01:25:39;5.07;;;3.78;;
55090;SDS011;40985;53.180;5.800;2022-12-29T01:28:05;4.85;;;4.28;;
55090;SDS011;40985;53.180;5.800;2022-12-29T01:30:33;4.97;;;4.00;;
55090;SDS011;40985;53.180;5.800;2022-12-29T01:32:59;4.93;;;4.28;;
55090;SDS011;40985;53.180;5.800;2022-12-29T01:35:25;4.07;;;3.67;;
55090;SDS011;40985;53.180;5.800;2022-12-29T01:37:51;5.28;;;3.78;;
55090;SDS011;40985;53.180;5.800;2022-12-29T01:40:17;4.28;;;3.97;;
55090;SDS011;40985;53.180;5.800;2022-12-29T01:42:43;5.10;;;4.60;;
55090;SDS011;40985;53.180;5.800;2022-12-29T01:45:10;4.30;;;4.00;;
55090;SDS011;40985;53.180;5.800;2022-12-29T01:52:44;4.25;;;3.75;;
55090;SDS011;40985;53.180;5.800;2022-12-29T01:55:19;4.97;;;4.57;;
55090;SDS011;40985;53.180;5.800;2022-12-29T01:57:46;6.10;;;5.40;;
55090;SDS011;40985;53.180;5.800;2022-12-29T02:00:16;7.07;;;5.43;;
55090;SDS011;40985;53.180;5.800;2022-12-29T02:02:43;6.20;;;5.80;;
55090;SDS011;40985;53.180;5.800;2022-12-29T02:05:14;6.38;;;5.88;;
55090;SDS011;40985;53.180;5.800;2022-12-29T02:07:46;6.65;;;6.07;;
55090;SDS011;40985;53.180;5.800;2022-12-29T02:10:13;6.20;;;5.60;;
55090;SDS011;40985;53.180;5.800;2022-12-29T02:12:39;5.28;;;4.78;;
55090;SDS011;40985;53.180;5.800;2022-12-29T02:15:05;3.92;;;3.55;;
55090;SDS011;40985;53.180;5.800;2022-12-29T02:17:53;2.72;;;1.40;;
55090;SDS011;40985;53.180;5.800;2022-12-29T02:29:00;1.90;;;0.30;;
55090;SDS011;40985;53.180;5.800;2022-12-29T02:31:58;1.30;;;0.10;;
55090;SDS011;40985;53.180;5.800;2022-12-29T02:37:07;2.35;;;0.10;;
55090;SDS011;40985;53.180;5.800;2022-12-29T02:40:00;1.45;;;0.10;;
55090;SDS011;40985;53.180;5.800;2022-12-29T02:45:54;2.05;;;0.25;;
55090;SDS011;40985;53.180;5.800;2022-12-29T02:48:37;1.00;;;0.10;;
55090;SDS011;40985;53.180;5.800;2022-12-29T02:51:12;0.60;;;0.10;;
55090;SDS011;40985;53.180;5.800;2022-12-29T02:53:45;0.20;;;0.00;;
55090;SDS011;40985;53.180;5.800;2022-12-29T02:56:30;0.57;;;0.10;;
55090;SDS011;40985;53.180;5.800;2022-12-29T02:58:56;1.20;;;0.40;;
55090;SDS011;40985;53.180;5.800;2022-12-29T03:07:37;3.58;;;1.13;;
55090;SDS011;40985;53.180;5.800;2022-12-29T03:12:25;3.08;;;0.70;;
55090;SDS011;40985;53.180;5.800;2022-12-29T03:15:20;4.60;;;1.02;;
55090;SDS011;40985;53.180;5.800;2022-12-29T03:18:18;3.67;;;1.17;;
55090;SDS011;40985;53.180;5.800;2022-12-29T03:20:55;4.55;;;0.88;;
55090;SDS011;40985;53.180;5.800;2022-12-29T03:23:27;7.32;;;1.40;;
55090;SDS011;40985;53.180;5.800;2022-12-29T03:25:54;10.38;;;1.10;;
55090;SDS011;40985;53.180;5.800;2022-12-29T03:28:24;5.22;;;0.50;;
55090;SDS011;40985;53.180;5.800;2022-12-29T03:30:54;6.03;;;0.40;;
55090;SDS011;40985;53.180;5.800;2022-12-29T03:33:22;7.78;;;0.73;;
55090;SDS011;40985;53.180;5.800;2022-12-29T03:35:50;9.38;;;0.47;;
55090;SDS011;40985;53.180;5.800;2022-12-29T03:41:11;6.90;;;0.85;;
55090;SDS011;40985;53.180;5.800;2022-12-29T03:43:45;3.75;;;0.65;;
55090;SDS011;40985;53.180;5.800;2022-12-29T03:46:11;8.70;;;0.60;;
55090;SDS011;40985;53.180;5.800;2022-12-29T03:48:37;8.55;;;0.40;;
55090;SDS011;40985;53.180;5.800;2022-12-29T03:51:03;9.20;;;0.40;;
55090;SDS011;40985;53.180;5.800;2022-12-29T03:53:28;6.53;;;0.40;;
55090;SDS011;40985;53.180;5.800;2022-12-29T03:55:54;7.57;;;0.30;;
55090;SDS011;40985;53.180;5.800;2022-12-29T03:58:20;6.85;;;0.40;;
55090;SDS011;40985;53.180;5.800;2022-12-29T04:00:45;4.85;;;0.20;;
55090;SDS011;40985;53.180;5.800;2022-12-29T04:03:11;7.70;;;0.30;;
55090;SDS011;40985;53.180;5.800;2022-12-29T04:05:36;6.05;;;0.73;;
55090;SDS011;40985;53.180;5.800;2022-12-29T04:08:02;4.78;;;0.70;;
55090;SDS011;40985;53.180;5.800;2022-12-29T04:10:28;6.05;;;0.30;;
55090;SDS011;40985;53.180;5.800;2022-12-29T04:12:53;7.45;;;0.35;;
55090;SDS011;40985;53.180;5.800;2022-12-29T04:15:19;7.00;;;0.43;;
55090;SDS011;40985;53.180;5.800;2022-12-29T04:17:45;8.30;;;0.30;;
55090;SDS011;40985;53.180;5.800;2022-12-29T04:20:10;6.10;;;0.57;;
55090;SDS011;40985;53.180;5.800;2022-12-29T04:23:01;12.75;;;0.82;;
55090;SDS011;40985;53.180;5.800;2022-12-29T04:25:29;15.95;;;1.00;;
55090;SDS011;40985;53.180;5.800;2022-12-29T04:27:56;12.38;;;0.82;;
55090;SDS011;40985;53.180;5.800;2022-12-29T04:30:22;20.40;;;1.60;;
55090;SDS011;40985;53.180;5.800;2022-12-29T04:32:47;15.85;;;1.02;;
55090;SDS011;40985;53.180;5.800;2022-12-29T04:35:13;22.80;;;2.28;;
55090;SDS011;40985;53.180;5.800;2022-12-29T04:37:39;21.88;;;1.63;;
55090;SDS011;40985;53.180;5.800;2022-12-29T04:40:04;15.20;;;1.50;;
55090;SDS011;40985;53.180;5.800;2022-12-29T04:42:30;24.77;;;1.77;;
55090;SDS011;40985;53.180;5.800;2022-12-29T04:44:56;22.02;;;3.28;;
55090;SDS011;40985;53.180;5.800;2022-12-29T04:47:22;25.33;;;1.92;;
55090;SDS011;40985;53.180;5.800;2022-12-29T04:49:48;18.42;;;2.05;;
55090;SDS011;40985;53.180;5.800;2022-12-29T04:52:13;24.25;;;1.70;;
55090;SDS011;40985;53.180;5.800;2022-12-29T04:54:39;22.65;;;2.15;;
55090;SDS011;40985;53.180;5.800;2022-12-29T04:57:05;24.42;;;1.85;;
55090;SDS011;40985;53.180;5.800;2022-12-29T04:59:30;27.15;;;2.72;;
55090;SDS011;40985;53.180;5.800;2022-12-29T05:01:56;25.00;;;1.75;;
55090;SDS011;40985;53.180;5.800;2022-12-29T05:04:22;27.95;;;2.30;;
55090;SDS011;40985;53.180;5.800;2022-12-29T05:06:47;22.27;;;1.70;;
55090;SDS011;40985;53.180;5.800;2022-12-29T05:09:13;21.05;;;2.85;;
55090;SDS011;40985;53.180;5.800;2022-12-29T05:11:39;24.88;;;2.05;;
55090;SDS011;40985;53.180;5.800;2022-12-29T05:14:04;18.65;;;1.15;;
55090;SDS011;40985;53.180;5.800;2022-12-29T05:16:30;26.17;;;2.30;;
55090;SDS011;40985;53.180;5.800;2022-12-29T05:18:56;22.05;;;1.38;;
55090;SDS011;40985;53.180;5.800;2022-12-29T05:21:21;23.73;;;2.05;;
55090;SDS011;40985;53.180;5.800;2022-12-29T05:23:47;24.27;;;1.67;;
55090;SDS011;40985;53.180;5.800;2022-12-29T05:26:13;22.08;;;2.15;;
55090;SDS011;40985;53.180;5.800;2022-12-29T05:28:38;19.52;;;1.40;;
55090;SDS011;40985;53.180;5.800;2022-12-29T05:31:04;23.48;;;2.03;;
55090;SDS011;40985;53.180;5.800;2022-12-29T05:33:30;13.20;;;1.15;;
55090;SDS011;40985;53.180;5.800;2022-12-29T05:35:55;23.23;;;2.17;;
55090;SDS011;40985;53.180;5.800;2022-12-29T05:38:21;20.88;;;1.25;;
55090;SDS011;40985;53.180;5.800;2022-12-29T05:40:46;27.30;;;2.03;;
55090;SDS011;40985;53.180;5.800;2022-12-29T05:43:12;19.77;;;1.55;;
55090;SDS011;40985;53.180;5.800;2022-12-29T05:45:38;19.52;;;1.10;;
55090;SDS011;40985;53.180;5.800;2022-12-29T05:48:03;15.73;;;1.65;;
55090;SDS011;40985;53.180;5.800;2022-12-29T05:50:29;18.45;;;1.65;;
55090;SDS011;40985;53.180;5.800;2022-12-29T05:52:55;14.60;;;1.60;;
55090;SDS011;40985;53.180;5.800;2022-12-29T05:55:21;14.30;;;1.20;;
55090;SDS011;40985;53.180;5.800;2022-12-29T05:57:46;21.45;;;1.58;;
55090;SDS011;40985;53.180;5.800;2022-12-29T06:00:12;13.73;;;1.05;;
55090;SDS011;40985;53.180;5.800;2022-12-29T06:02:39;18.52;;;1.63;;
55090;SDS011;40985;53.180;5.800;2022-12-29T06:05:05;20.08;;;1.23;;
55090;SDS011;40985;53.180;5.800;2022-12-29T06:07:30;17.67;;;1.20;;
55090;SDS011;40985;53.180;5.800;2022-12-29T06:09:56;23.50;;;2.10;;
55090;SDS011;40985;53.180;5.800;2022-12-29T06:12:22;22.15;;;1.50;;
55090;SDS011;40985;53.180;5.800;2022-12-29T06:14:47;19.58;;;2.55;;
55090;SDS011;40985;53.180;5.800;2022-12-29T06:17:13;25.33;;;2.20;;
55090;SDS011;40985;53.180;5.800;2022-12-29T06:19:38;25.10;;;2.33;;
55090;SDS011;40985;53.180;5.800;2022-12-29T06:22:05;28.80;;;2.38;;
55090;SDS011;40985;53.180;5.800;2022-12-29T06:24:32;21.35;;;2.10;;
55090;SDS011;40985;53.180;5.800;2022-12-29T06:26:57;26.63;;;2.72;;
55090;SDS011;40985;53.180;5.800;2022-12-29T06:29:23;23.48;;;2.15;;
55090;SDS011;40985;53.180;5.800;2022-12-29T06:31:49;27.23;;;2.13;;
55090;SDS011;40985;53.180;5.800;2022-12-29T06:34:16;23.02;;;1.83;;
55090;SDS011;40985;53.180;5.800;2022-12-29T06:36:41;25.90;;;3.47;;
55090;SDS011;40985;53.180;5.800;2022-12-29T06:39:07;19.45;;;2.08;;
55090;SDS011;40985;53.180;5.800;2022-12-29T06:41:33;21.80;;;2.35;;
55090;SDS011;40985;53.180;5.800;2022-12-29T06:43:58;24.80;;;2.33;;
55090;SDS011;40985;53.180;5.800;2022-12-29T06:46:24;24.92;;;2.72;;
55090;SDS011;40985;53.180;5.800;2022-12-29T06:48:50;22.65;;;1.60;;
55090;SDS011;40985;53.180;5.800;2022-12-29T06:51:15;29.30;;;3.08;;
55090;SDS011;40985;53.180;5.800;2022-12-29T06:53:41;25.65;;;3.03;;
55090;SDS011;40985;53.180;5.800;2022-12-29T06:56:06;27.75;;;2.80;;
55090;SDS011;40985;53.180;5.800;2022-12-29T06:58:32;22.40;;;2.28;;
55090;SDS011;40985;53.180;5.800;2022-12-29T07:00:58;25.90;;;2.70;;
55090;SDS011;40985;53.180;5.800;2022-12-29T07:03:24;30.02;;;2.47;;
55090;SDS011;40985;53.180;5.800;2022-12-29T07:05:50;28.73;;;2.97;;
55090;SDS011;40985;53.180;5.800;2022-12-29T07:08:15;25.55;;;4.03;;
55090;SDS011;40985;53.180;5.800;2022-12-29T07:10:41;23.83;;;2.95;;
55090;SDS011;40985;53.180;5.800;2022-12-29T07:13:07;28.02;;;2.83;;
55090;SDS011;40985;53.180;5.800;2022-12-29T07:15:33;19.17;;;2.15;;
55090;SDS011;40985;53.180;5.800;2022-12-29T07:17:59;27.75;;;2.63;;
55090;SDS011;40985;53.180;5.800;2022-12-29T07:20:25;25.88;;;2.28;;
55090;SDS011;40985;53.180;5.800;2022-12-29T07:22:51;26.77;;;2.42;;
55090;SDS011;40985;53.180;5.800;2022-12-29T07:25:16;26.85;;;3.25;;
55090;SDS011;40985;53.180;5.800;2022-12-29T07:27:42;22.00;;;2.75;;
55090;SDS011;40985;53.180;5.800;2022-12-29T07:30:08;26.15;;;3.10;;
55090;SDS011;40985;53.180;5.800;2022-12-29T07:32:34;26.52;;;2.35;;
55090;SDS011;40985;53.180;5.800;2022-12-29T07:35:00;30.33;;;2.83;;
55090;SDS011;40985;53.180;5.800;2022-12-29T07:37:26;26.05;;;3.05;;
55090;SDS011;40985;53.180;5.800;2022-12-29T07:39:52;29.10;;;3.65;;
55090;SDS011;40985;53.180;5.800;2022-12-29T07:42:17;21.45;;;2.90;;
55090;SDS011;40985;53.180;5.800;2022-12-29T07:44:43;24.25;;;2.03;;
55090;SDS011;40985;53.180;5.800;2022-12-29T07:47:09;24.25;;;2.72;;
55090;SDS011;40985;53.180;5.800;2022-12-29T07:49:34;21.55;;;2.10;;
55090;SDS011;40985;53.180;5.800;2022-12-29T07:52:00;18.25;;;2.25;;
55090;SDS011;40985;53.180;5.800;2022-12-29T07:54:26;24.85;;;2.10;;
55090;SDS011;40985;53.180;5.800;2022-12-29T07:56:51;25.90;;;2.55;;
55090;SDS011;40985;53.180;5.800;2022-12-29T07:59:17;26.58;;;1.98;;
55090;SDS011;40985;53.180;5.800;2022-12-29T08:01:43;24.38;;;1.80;;
55090;SDS011;40985;53.180;5.800;2022-12-29T08:04:09;28.27;;;2.55;;
55090;SDS011;40985;53.180;5.800;2022-12-29T08:06:34;28.48;;;2.92;;
55090;SDS011;40985;53.180;5.800;2022-12-29T08:09:00;34.88;;;4.85;;
55090;SDS011;40985;53.180;5.800;2022-12-29T08:11:26;24.45;;;3.03;;
55090;SDS011;40985;53.180;5.800;2022-12-29T08:13:52;24.40;;;3.10;;
55090;SDS011;40985;53.180;5.800;2022-12-29T08:16:18;30.55;;;3.65;;
55090;SDS011;40985;53.180;5.800;2022-12-29T08:18:44;29.10;;;3.08;;
55090;SDS011;40985;53.180;5.800;2022-12-29T08:21:09;31.08;;;2.40;;
55090;SDS011;40985;53.180;5.800;2022-12-29T08:23:35;23.88;;;3.10;;
55090;SDS011;40985;53.180;5.800;2022-12-29T08:26:02;26.23;;;4.43;;
55090;SDS011;40985;53.180;5.800;2022-12-29T08:28:30;31.52;;;3.78;;
55090;SDS011;40985;53.180;5.800;2022-12-29T08:30:57;31.58;;;3.45;;
55090;SDS011;40985;53.180;5.800;2022-12-29T08:33:24;28.70;;;3.53;;
55090;SDS011;40985;53.180;5.800;2022-12-29T08:35:50;30.98;;;3.58;;
55090;SDS011;40985;53.180;5.800;2022-12-29T08:38:16;33.50;;;3.90;;
55090;SDS011;40985;53.180;5.800;2022-12-29T08:40:43;28.70;;;2.88;;
55090;SDS011;40985;53.180;5.800;2022-12-29T08:43:09;33.08;;;3.45;;
55090;SDS011;40985;53.180;5.800;2022-12-29T08:45:34;31.90;;;2.90;;
55090;SDS011;40985;53.180;5.800;2022-12-29T08:48:00;31.92;;;4.45;;
55090;SDS011;40985;53.180;5.800;2022-12-29T08:50:26;26.33;;;2.80;;
55090;SDS011;40985;53.180;5.800;2022-12-29T08:52:52;34.97;;;3.58;;
55090;SDS011;40985;53.180;5.800;2022-12-29T08:55:17;26.55;;;3.45;;
55090;SDS011;40985;53.180;5.800;2022-12-29T08:57:43;29.48;;;2.67;;
55090;SDS011;40985;53.180;5.800;2022-12-29T09:00:09;38.25;;;5.05;;
55090;SDS011;40985;53.180;5.800;2022-12-29T09:02:36;37.42;;;5.00;;
55090;SDS011;40985;53.180;5.800;2022-12-29T09:05:01;32.92;;;3.58;;
55090;SDS011;40985;53.180;5.800;2022-12-29T09:07:27;46.83;;;4.32;;
55090;SDS011;40985;53.180;5.800;2022-12-29T09:09:53;33.15;;;3.15;;
55090;SDS011;40985;53.180;5.800;2022-12-29T09:12:19;27.88;;;4.53;;
55090;SDS011;40985;53.180;5.800;2022-12-29T09:14:45;38.13;;;4.55;;
55090;SDS011;40985;53.180;5.800;2022-12-29T09:17:11;38.42;;;4.50;;
55090;SDS011;40985;53.180;5.800;2022-12-29T09:19:56;36.70;;;4.65;;
55090;SDS011;40985;53.180;5.800;2022-12-29T09:22:21;39.13;;;4.30;;
55090;SDS011;40985;53.180;5.800;2022-12-29T09:24:47;33.45;;;4.07;;
55090;SDS011;40985;53.180;5.800;2022-12-29T09:27:13;33.50;;;3.90;;
55090;SDS011;40985;53.180;5.800;2022-12-29T09:29:38;33.13;;;5.53;;
55090;SDS011;40985;53.180;5.800;2022-12-29T09:32:04;30.17;;;4.35;;
55090;SDS011;40985;53.180;5.800;2022-12-29T09:34:30;34.78;;;3.88;;
55090;SDS011;40985;53.180;5.800;2022-12-29T09:36:55;35.92;;;4.43;;
55090;SDS011;40985;53.180;5.800;2022-12-29T09:39:21;29.95;;;3.15;;
55090;SDS011;40985;53.180;5.800;2022-12-29T09:41:49;24.88;;;2.22;;
55090;SDS011;40985;53.180;5.800;2022-12-29T09:44:31;22.45;;;1.70;;
55090;SDS011;40985;53.180;5.800;2022-12-29T09:47:17;25.42;;;2.15;;
55090;SDS011;40985;53.180;5.800;2022-12-29T09:49:52;23.02;;;2.70;;
55090;SDS011;40985;53.180;5.800;2022-12-29T09:52:30;23.85;;;2.03;;
55090;SDS011;40985;53.180;5.800;2022-12-29T09:55:04;23.73;;;2.25;;
55090;SDS011;40985;53.180;5.800;2022-12-29T09:57:49;22.73;;;2.05;;
55090;SDS011;40985;53.180;5.800;2022-12-29T10:00:48;21.65;;;1.83;;
55090;SDS011;40985;53.180;5.800;2022-12-29T10:03:16;28.77;;;2.63;;
55090;SDS011;40985;53.180;5.800;2022-12-29T10:05:51;25.42;;;2.70;;
55090;SDS011;40985;53.180;5.800;2022-12-29T10:08:22;26.35;;;3.00;;
55090;SDS011;40985;53.180;5.800;2022-12-29T10:11:17;25.63;;;2.92;;
55090;SDS011;40985;53.180;5.800;2022-12-29T10:17:02;27.10;;;3.05;;
55090;SDS011;40985;53.180;5.800;2022-12-29T10:25:33;26.80;;;2.88;;
55090;SDS011;40985;53.180;5.800;2022-12-29T10:28:00;34.33;;;4.05;;
55090;SDS011;40985;53.180;5.800;2022-12-29T10:30:34;33.25;;;3.72;;
55090;SDS011;40985;53.180;5.800;2022-12-29T10:33:04;22.17;;;2.85;;
55090;SDS011;40985;53.180;5.800;2022-12-29T10:35:34;29.92;;;4.00;;
55090;SDS011;40985;53.180;5.800;2022-12-29T10:43:43;32.60;;;3.40;;
55090;SDS011;40985;53.180;5.800;2022-12-29T10:46:13;33.85;;;3.53;;
55090;SDS011;40985;53.180;5.800;2022-12-29T10:48:44;30.15;;;4.55;;
55090;SDS011;40985;53.180;5.800;2022-12-29T10:51:15;26.30;;;3.28;;
55090;SDS011;40985;53.180;5.800;2022-12-29T10:53:46;26.00;;;1.73;;
55090;SDS011;40985;53.180;5.800;2022-12-29T10:59:27;31.80;;;2.67;;
55090;SDS011;40985;53.180;5.800;2022-12-29T11:07:29;20.15;;;1.60;;
55090;SDS011;40985;53.180;5.800;2022-12-29T11:09:55;23.85;;;2.10;;
55090;SDS011;40985;53.180;5.800;2022-12-29T11:12:56;24.15;;;2.85;;
55090;SDS011;40985;53.180;5.800;2022-12-29T11:15:26;18.55;;;1.60;;
55090;SDS011;40985;53.180;5.800;2022-12-29T11:17:53;15.43;;;1.52;;
55090;SDS011;40985;53.180;5.800;2022-12-29T11:20:36;19.80;;;1.77;;
55090;SDS011;40985;53.180;5.800;2022-12-29T11:23:04;23.88;;;2.28;;
55090;SDS011;40985;53.180;5.800;2022-12-29T11:25:46;23.40;;;2.42;;
55090;SDS011;40985;53.180;5.800;2022-12-29T11:28:37;17.88;;;1.58;;
55090;SDS011;40985;53.180;5.800;2022-12-29T11:31:05;18.20;;;2.20;;
55090;SDS011;40985;53.180;5.800;2022-12-29T11:33:32;26.35;;;1.88;;
55090;SDS011;40985;53.180;5.800;2022-12-29T11:36:01;17.38;;;1.30;;
55090;SDS011;40985;53.180;5.800;2022-12-29T11:38:32;18.60;;;1.42;;
55090;SDS011;40985;53.180;5.800;2022-12-29T11:41:05;16.73;;;1.40;;
55090;SDS011;40985;53.180;5.800;2022-12-29T11:43:39;16.45;;;1.67;;
55090;SDS011;40985;53.180;5.800;2022-12-29T11:46:12;18.88;;;1.98;;
55090;SDS011;40985;53.180;5.800;2022-12-29T11:48:42;19.42;;;1.65;;
55090;SDS011;40985;53.180;5.800;2022-12-29T11:51:09;17.35;;;1.95;;
55090;SDS011;40985;53.180;5.800;2022-12-29T11:56:13;17.55;;;1.58;;
55090;SDS011;40985;53.180;5.800;2022-12-29T11:58:41;15.48;;;1.42;;
55090;SDS011;40985;53.180;5.800;2022-12-29T12:01:11;13.88;;;0.80;;
55090;SDS011;40985;53.180;5.800;2022-12-29T12:03:49;10.70;;;1.52;;
55090;SDS011;40985;53.180;5.800;2022-12-29T12:06:26;13.73;;;0.70;;
55090;SDS011;40985;53.180;5.800;2022-12-29T12:08:59;9.35;;;0.60;;
55090;SDS011;40985;53.180;5.800;2022-12-29T12:11:34;7.72;;;0.57;;
55090;SDS011;40985;53.180;5.800;2022-12-29T12:16:58;12.43;;;0.70;;
55090;SDS011;40985;53.180;5.800;2022-12-29T12:19:43;12.32;;;0.50;;
55090;SDS011;40985;53.180;5.800;2022-12-29T12:22:22;8.80;;;0.65;;
55090;SDS011;40985;53.180;5.800;2022-12-29T12:25:02;9.23;;;0.40;;
55090;SDS011;40985;53.180;5.800;2022-12-29T12:27:53;9.70;;;0.70;;
55090;SDS011;40985;53.180;5.800;2022-12-29T12:30:36;12.63;;;0.85;;
55090;SDS011;40985;53.180;5.800;2022-12-29T12:33:18;9.60;;;0.95;;
55090;SDS011;40985;53.180;5.800;2022-12-29T12:44:27;12.68;;;0.50;;
55090;SDS011;40985;53.180;5.800;2022-12-29T13:00:37;10.18;;;1.40;;
55090;SDS011;40985;53.180;5.800;2022-12-29T13:06:15;15.35;;;1.20;;
55090;SDS011;40985;53.180;5.800;2022-12-29T13:11:25;9.63;;;1.20;;
55090;SDS011;40985;53.180;5.800;2022-12-29T13:19:18;11.68;;;0.70;;
55090;SDS011;40985;53.180;5.800;2022-12-29T13:27:51;9.48;;;0.40;;
55090;SDS011;40985;53.180;5.800;2022-12-29T13:30:30;8.85;;;0.63;;
55090;SDS011;40985;53.180;5.800;2022-12-29T13:33:27;12.73;;;1.27;;
55090;SDS011;40985;53.180;5.800;2022-12-29T13:38:44;6.95;;;0.40;;
55090;SDS011;40985;53.180;5.800;2022-12-29T13:44:09;12.25;;;0.60;;
55090;SDS011;40985;53.180;5.800;2022-12-29T13:46:45;11.20;;;1.05;;
55090;SDS011;40985;53.180;5.800;2022-12-29T13:49:13;10.45;;;0.70;;
55090;SDS011;40985;53.180;5.800;2022-12-29T13:51:48;13.80;;;1.67;;
55090;SDS011;40985;53.180;5.800;2022-12-29T14:05:05;10.45;;;0.45;;
55090;SDS011;40985;53.180;5.800;2022-12-29T14:07:57;7.93;;;0.82;;
55090;SDS011;40985;53.180;5.800;2022-12-29T14:10:37;18.02;;;1.95;;
55090;SDS011;40985;53.180;5.800;2022-12-29T14:15:39;12.57;;;1.17;;
55090;SDS011;40985;53.180;5.800;2022-12-29T14:20:47;11.85;;;0.80;;
55090;SDS011;40985;53.180;5.800;2022-12-29T14:23:27;10.00;;;0.55;;
55090;SDS011;40985;53.180;5.800;2022-12-29T14:28:31;11.82;;;0.55;;
55090;SDS011;40985;53.180;5.800;2022-12-29T14:31:04;10.82;;;0.63;;
55090;SDS011;40985;53.180;5.800;2022-12-29T14:33:39;10.05;;;0.50;;
55090;SDS011;40985;53.180;5.800;2022-12-29T14:36:20;10.57;;;2.05;;
55090;SDS011;40985;53.180;5.800;2022-12-29T14:38:50;8.00;;;0.50;;
55090;SDS011;40985;53.180;5.800;2022-12-29T14:44:31;13.48;;;1.73;;
55090;SDS011;40985;53.180;5.800;2022-12-29T14:49:22;10.10;;;0.93;;
55090;SDS011;40985;53.180;5.800;2022-12-29T14:52:06;17.00;;;1.42;;
55090;SDS011;40985;53.180;5.800;2022-12-29T14:54:43;14.55;;;1.20;;
55090;SDS011;40985;53.180;5.800;2022-12-29T14:57:17;7.90;;;0.73;;
55090;SDS011;40985;53.180;5.800;2022-12-29T14:59:46;17.63;;;1.83;;
55090;SDS011;40985;53.180;5.800;2022-12-29T15:02:19;14.82;;;1.40;;
55090;SDS011;40985;53.180;5.800;2022-12-29T15:04:47;15.98;;;2.30;;
55090;SDS011;40985;53.180;5.800;2022-12-29T15:07:13;18.20;;;0.90;;
55090;SDS011;40985;53.180;5.800;2022-12-29T15:09:41;12.88;;;0.90;;
55090;SDS011;40985;53.180;5.800;2022-12-29T15:12:33;13.60;;;1.08;;
55090;SDS011;40985;53.180;5.800;2022-12-29T15:16:05;18.25;;;1.42;;
55090;SDS011;40985;53.180;5.800;2022-12-29T15:20:55;10.75;;;0.90;;
55090;SDS011;40985;53.180;5.800;2022-12-29T15:23:23;17.95;;;1.02;;
55090;SDS011;40985;53.180;5.800;2022-12-29T15:28:22;14.25;;;1.20;;
55090;SDS011;40985;53.180;5.800;2022-12-29T15:30:56;29.48;;;2.65;;
55090;SDS011;40985;53.180;5.800;2022-12-29T15:33:27;22.80;;;0.98;;
55090;SDS011;40985;53.180;5.800;2022-12-29T15:35:54;16.25;;;0.98;;
55090;SDS011;40985;53.180;5.800;2022-12-29T15:38:26;19.08;;;2.22;;
55090;SDS011;40985;53.180;5.800;2022-12-29T15:40:54;12.75;;;1.05;;
55090;SDS011;40985;53.180;5.800;2022-12-29T15:46:14;13.27;;;0.80;;
55090;SDS011;40985;53.180;5.800;2022-12-29T15:48:41;9.88;;;0.40;;
55090;SDS011;40985;53.180;5.800;2022-12-29T15:51:20;8.13;;;0.40;;
55090;SDS011;40985;53.180;5.800;2022-12-29T15:54:18;4.15;;;0.30;;
55090;SDS011;40985;53.180;5.800;2022-12-29T15:56:46;5.32;;;0.30;;
55090;SDS011;40985;53.180;5.800;2022-12-29T15:59:22;6.53;;;0.30;;
55090;SDS011;40985;53.180;5.800;2022-12-29T16:01:54;8.98;;;0.50;;
55090;SDS011;40985;53.180;5.800;2022-12-29T16:04:21;7.65;;;0.73;;
55090;SDS011;40985;53.180;5.800;2022-12-29T16:06:56;8.07;;;0.45;;
55090;SDS011;40985;53.180;5.800;2022-12-29T16:11:59;6.53;;;0.90;;
55090;SDS011;40985;53.180;5.800;2022-12-29T16:14:44;8.50;;;0.60;;
55090;SDS011;40985;53.180;5.800;2022-12-29T16:17:13;6.55;;;0.50;;
55090;SDS011;40985;53.180;5.800;2022-12-29T16:19:48;7.05;;;0.30;;
55090;SDS011;40985;53.180;5.800;2022-12-29T16:22:29;4.60;;;0.82;;
55090;SDS011;40985;53.180;5.800;2022-12-29T16:24:59;7.53;;;1.30;;
55090;SDS011;40985;53.180;5.800;2022-12-29T16:27:38;10.60;;;0.90;;
55090;SDS011;40985;53.180;5.800;2022-12-29T16:30:07;10.40;;;0.60;;
55090;SDS011;40985;53.180;5.800;2022-12-29T16:32:45;8.50;;;0.93;;
55090;SDS011;40985;53.180;5.800;2022-12-29T16:35:17;11.20;;;0.70;;
55090;SDS011;40985;53.180;5.800;2022-12-29T16:37:44;10.25;;;0.70;;
55090;SDS011;40985;53.180;5.800;2022-12-29T16:45:20;9.60;;;0.60;;
55090;SDS011;40985;53.180;5.800;2022-12-29T16:50:43;17.50;;;0.90;;
55090;SDS011;40985;53.180;5.800;2022-12-29T16:56:17;19.73;;;1.60;;
55090;SDS011;40985;53.180;5.800;2022-12-29T16:58:54;21.23;;;2.53;;
55090;SDS011;40985;53.180;5.800;2022-12-29T17:01:28;17.67;;;1.90;;
55090;SDS011;40985;53.180;5.800;2022-12-29T17:03:55;20.33;;;1.70;;
55090;SDS011;40985;53.180;5.800;2022-12-29T17:06:24;22.75;;;2.17;;
55090;SDS011;40985;53.180;5.800;2022-12-29T17:08:50;16.88;;;1.88;;
55090;SDS011;40985;53.180;5.800;2022-12-29T17:11:21;26.10;;;2.70;;
55090;SDS011;40985;53.180;5.800;2022-12-29T17:17:11;18.17;;;1.73;;
55090;SDS011;40985;53.180;5.800;2022-12-29T17:19:38;21.15;;;2.08;;
55090;SDS011;40985;53.180;5.800;2022-12-29T17:22:12;14.98;;;1.60;;
55090;SDS011;40985;53.180;5.800;2022-12-29T17:24:44;24.55;;;2.03;;
55090;SDS011;40985;53.180;5.800;2022-12-29T17:27:16;20.77;;;2.42;;
55090;SDS011;40985;53.180;5.800;2022-12-29T17:29:48;22.35;;;2.10;;
55090;SDS011;40985;53.180;5.800;2022-12-29T17:32:15;21.30;;;1.55;;